Nearby METAR Reports

 

KSYN - Stanton, Minnesota, USA
Distance from station: NW 20mi, 33km
Updated: Sun, 09-Dec-2018 10:35pm CST
Mist, Clear
Mist, Clear
 Wind from SSW
Wind: SSW 3 mph , 6 km/h
Temperature: 10°F , -12°C
Dew Point: 9°F , -13°C
Humidity: 92%
Barometer: 30.26 inHg , 1024.7 hPa
Summary: Mist
Clouds: Clear
Visibility: 5 miles , 8 km
2018/12/10 04:35 KSYN 100435Z AUTO 21003KT 5SM BR CLR M12/M13 A3026 RMK AO2 T11231135
KTOB - Dodge Center, Minnesota, USA
Distance from station: SSW 21mi, 34km
Updated: Sun, 09-Dec-2018 10:55pm CST
Mist, Overcast
Mist, Overcast
 Wind from SW
Wind: SW 8 mph , 13 km/h
Temperature: 19°F , -7°C
Wind Chill: 9°F , -13°C
Dew Point: 18°F , -8°C
Humidity: 93%
Barometer: 30.24 inHg , 1024 hPa
Summary: Mist
Clouds: Overcast
Visibility: 4 miles , 6 km
Cloud details: Overcast 500 ft
2018/12/10 04:55 KTOB 100455Z AUTO 23007KT 4SM BR OVC005 M07/M08 A3024 RMK AO2
K9MN - St Mary Hospital, Minnesota, USA
Distance from station: SSE 22mi, 35km
Updated: Sun, 09-Dec-2018 10:35pm CST
Clear
Clear
 Wind from SW
Wind: SW 6 mph , 9 km/h
Temperature: 19°F , -7°C
Wind Chill: 11°F , -12°C
Dew Point: 18°F , -8°C
Humidity: 93%
Barometer: 30.26 inHg , 1024.7 hPa
Clouds: Clear
Visibility: 5 miles , 8 km
2018/12/10 04:35 K9MN 100435Z AUTO 23005KT 5SM CLR M07/M08 A3026 RMK AO1 T10741079
 
KRGK - Red Wing, Minnesota, USA
Distance from station: NNE 22mi, 35km
Updated: Sun, 09-Dec-2018 10:56pm CST
Clear
Clear
 Wind from calm
Wind: Calm
Temperature: 10°F , -12°C
Dew Point: 7°F , -14°C
Humidity: 85%
Barometer: 30.28 inHg , 1025.4 hPa
Clouds: Clear
Visibility: 7 miles , 11 km
2018/12/10 04:56 KRGK 100456Z AUTO 00000KT 7SM CLR M12/M14 A3028 RMK AO2
KRST - Rochester, Minnesota, USA
Distance from station: SSE 29mi, 47km
Updated: Sun, 09-Dec-2018 10:54pm CST
Mist, Clear
Mist, Clear
 Wind from SSW
Wind: SSW 10 mph , 17 km/h
Temperature: 7°F , -14°C
Wind Chill: -7°F , -22°C
Dew Point: 5°F , -15°C
Humidity: 92%
Barometer: 30.24 inHg , 1024 hPa
Summary: Mist
Clouds: Clear
Visibility: 2 miles , 3 km
2018/12/10 04:54 KRST 100454Z AUTO 21009KT 2SM BR CLR M14/M15 A3024 RMK AO2 SLP271 T11441150
KOWA - Owatonna, Minnesota, USA
Distance from station: WSW 31mi, 50km
Updated: Sun, 09-Dec-2018 10:36pm CST
Mist, Clear
Mist, Clear
 Wind from SSW
Wind: SSW 6 mph , 9 km/h
Temperature: 12°F , -11°C
Wind Chill: 2°F , -17°C
Dew Point: 10°F , -12°C
Humidity: 92%
Barometer: 30.25 inHg , 1024.4 hPa
Summary: Mist
Clouds: Clear
Visibility: 4 miles , 6 km
2018/12/10 04:36 KOWA 100436Z AUTO 20005KT 4SM BR CLR M11/M12 A3025 RMK AO2
 
KFBL - Faribault Muni, Minnesota, USA
Distance from station: W 32mi, 51km
Updated: Thu, 20-Sep-2018 6:41pm CDT
NOT Current

 Wind from SSE
Wind: SSE 18 mph , 30 km/h, Gust: 45 mph , 72 km/h
Visibility: 4 miles , 6 km
2018/09/20 23:41 KFBL 202341Z AUTO 15016G39KT 122V182 4SM +VCTSRA SCT010 BKN070 21/21 A2951 RMK AO2 P0008 LTG DSNT ALQDS
KSGS - South St Paul, Minnesota, USA
Distance from station: NNW 43mi, 69km
Updated: Sun, 09-Dec-2018 10:35pm CST
Mist, Clear
Mist, Clear
 Wind from calm
Wind: Calm
Temperature: 14°F , -10°C
Dew Point: 12°F , -11°C
Humidity: 92%
Barometer: 30.28 inHg , 1025.4 hPa
Summary: Mist
Clouds: Clear
Visibility: 5 miles , 8 km
2018/12/10 04:35 KSGS 100435Z AUTO 00000KT 5SM BR CLR M10/M11 A3028 RMK AO2 T11031115
KAUM - Austin Muni, Minnesota, USA
Distance from station: SSW 46mi, 73km
Updated: Sun, 09-Dec-2018 10:56pm CST
Mist, Clear
Mist, Clear
 Wind from SW
Wind: SW 5 mph , 7 km/h
Temperature: 12°F , -11°C
Wind Chill: 4°F , -16°C
Dew Point: 10°F , -12°C
Humidity: 92%
Barometer: 30.26 inHg , 1024.7 hPa
Summary: Mist
Clouds: Clear
Visibility: 3 miles , 5 km
2018/12/10 04:56 KAUM 100456Z AUTO 22004KT 3SM BR CLR M11/M12 A3026 RMK AO2
 
KACQ - Waseca, Minnesota, USA
Distance from station: WSW 46mi, 75km
Updated: Sun, 09-Dec-2018 10:55pm CST
Mist, Partly cloudy
Mist, Partly cloudy
 Wind from calm
Wind: Calm
Temperature: 12°F , -11°C
Dew Point: 10°F , -12°C
Humidity: 92%
Barometer: 30.28 inHg , 1025.4 hPa
Summary: Mist
Clouds: Partly cloudy
Visibility: 3 miles , 5 km
Cloud details: Partly cloudy 100 ft
2018/12/10 04:55 KACQ 100455Z AUTO 00000KT 3SM BR SCT001 M11/M12 A3028 RMK AO2
KSTP - St. Paul, Minnesota, USA
Distance from station: NNW 47mi, 76km
Updated: Sun, 09-Dec-2018 10:53pm CST
Mist, Clear
Mist, Clear
 Wind from S
Wind: S 5 mph , 7 km/h
Temperature: 16°F , -9°C
Wind Chill: 8°F , -13°C
Dew Point: 12°F , -11°C
Humidity: 86%
Barometer: 30.28 inHg , 1025.4 hPa
Summary: Mist
Clouds: Clear
Visibility: 4 miles , 6 km
2018/12/10 04:53 KSTP 100453Z AUTO 17004KT 4SM BR CLR M09/M11 A3028 RMK AO2 SLP266 I1001 T10941111
KMSP - Minneapolis, Minnesota, USA
Distance from station: NW 49mi, 78km
Updated: Sun, 09-Dec-2018 10:53pm CST
Mist, Clear
Mist, Clear
 Wind from SW
Wind: SW 3 mph , 6 km/h
Temperature: 18°F , -8°C
Dew Point: 16°F , -9°C
Humidity: 93%
Barometer: 30.27 inHg , 1025.1 hPa
Summary: Mist
Clouds: Clear
Visibility: 5 miles , 8 km
2018/12/10 04:53 KMSP 100453Z 22003KT 5SM BR CLR M08/M09 A3027 RMK AO2 SLP265 I1000 T10781094 $